West Wardsboro, VT (05360)

11:19 PM EST on February 26, 2015 (GMT -0500)
Stratton Mountain | Change Station
CLOSE
Current Station
Personal Weather Station
Location: Stratton, VT
Elevation: 3159 ft
Nearby Weather Stations

Elev 3159 ft 43.10 °N, 72.92 °W | Updated 4 minutes ago

Overcast
Overcast
4.6 °F
Feels Like -9 °F
N
8.0
Wind Variable Wind from NE

Today
High -- | Low -- °F
--% Chance of Precip.
Yesterday
High -- | Low -- °F
Precip. -- in
6:32 AM 5:36 PM
Waxing Gibbous, 65% visible
Pressure 30.13 in
Visibility 10.0 miles
Clouds Mostly Cloudy 4300 ft
Mostly Cloudy 9500 ft
Overcast 12000 ft
Windchill -9 °F
Dew Point -32 °F
Humidity 16%
Rainfall 0.00 in
Snow Depth Not available.
UV 0 out of 12
Pollen .30 out of 12
Air Quality Not available.
Flu Activity Not available.
METAR KDDH 270354Z AUTO 00000KT 10SM BKN043 BKN095 OVC120 M12/M21 A3008 RMK AO2 SLP203 T11221206

More Conditions Fewer Conditions

Pressure 30.13 in
Visibility 10.0 miles
Clouds Mostly Cloudy 4300 ft
Mostly Cloudy 9500 ft
Overcast 12000 ft
Windchill -9 °F
Dew Point -32 °F
Humidity 16%
Rainfall 0.00 in
Snow Depth Not available.
UV 0 out of 12
Pollen .30 out of 12
Air Quality Not available.
Flu Activity Not available.
METAR KDDH 270354Z AUTO 00000KT 10SM BKN043 BKN095 OVC120 M12/M21 A3008 RMK AO2 SLP203 T11221206

More Conditions Fewer Conditions

10-Day Weather Forecast

Almanac

Astronomy

Feb. 26, 2015 Rise Set
Actual Time
Civil Twilight
Nautical Twilight
Astronomical Twilight
Moon
Length of Visible Light
Length of Day
Tomorrow will be .
, % of the Moon is Illuminated

Today's Extremes

State Highs State Lows

Community

WunderPhotos

Upload Photos

1,800,620 photos uploaded!

WunderBlogs® & News

Nearby

Air Quality

  Air Quality AQ Index Pollutant
Not available.

Snow Depth

Station Depth Elevation

Earthquake Activity

City Distance Mag. Time & Date
Minimum magnitude displayed is 2.5.

Coastal Water Temperatures

Place Temperature

Nearby Weather Stations